Startpagina
METAR-TAF:

METAR-TAF

Vliegvelden :

Salto, Uruguay

breedte: 31-23S, lengte: 057-57W, hoogte: 34 m

Actueel weer

Dit bericht is 3 uur en het 58 minuten geleden gemaakt, om 20:00 UTC
Wind 7 kt uit het oosten
Temperatuur 27°C
Vochtigheid 45%
Druk 1013 hPa
Zicht 10 km of meer
geen wolken onder 1500 m en geen cumulonimbus

METAR: SUSO 232000Z 09007KT CAVOK 27/14 Q1013

Tijdstip: 20:58 (23:58 UTC)

Verwachting

Dit bericht is 43 minuten geleden gemaakt, om 23:15 UTC
Verwachting geldig van 24 om 00 UTC tot 24 om 24 UTC
Wind 8 kt uit het noordoosten
Zicht 10 km of meer
geen wolken onder 1500 m en geen cumulonimbus

TAF: SUSO 232315Z 2400/2424 04008KT CAVOK TX32/2418Z TN16/2410Z

Waarnemingen en weersverwachtingen van meer dan 4000 vliegvelden (METAR en TAF).

De beschikbare stations zijn de gele en rode punten op de kaart.

Ga met uw muis naar het station om de naam te zien.

Klik dan om waarnemingen en weersverwachtingen te zien.

kaart wijzigen: klik op de groene knoppen met een zwart kruis om in te zoomen, op de groene knop met een streepje om uit te zoomen of op de groene pijlen voor aangrenzende kaarten.


METAR-TAF: